sensor_id;sensor_type;location;lat;lon;timestamp;P1;durP1;ratioP1;P2;durP2;ratioP2
17763;SDS011;22245;52.832;13.816;2023-03-03T00:02:31;28.87;;;13.30;;
17763;SDS011;22245;52.832;13.816;2023-03-03T00:05:53;34.17;;;14.70;;
17763;SDS011;22245;52.832;13.816;2023-03-03T00:09:15;33.80;;;13.93;;
17763;SDS011;22245;52.832;13.816;2023-03-03T00:12:36;34.70;;;14.70;;
17763;SDS011;22245;52.832;13.816;2023-03-03T00:16:10;34.93;;;13.53;;
17763;SDS011;22245;52.832;13.816;2023-03-03T00:19:37;32.53;;;13.53;;
17763;SDS011;22245;52.832;13.816;2023-03-03T00:23:16;31.17;;;13.53;;
17763;SDS011;22245;52.832;13.816;2023-03-03T00:26:45;30.47;;;12.83;;
17763;SDS011;22245;52.832;13.816;2023-03-03T00:30:16;30.70;;;12.80;;
17763;SDS011;22245;52.832;13.816;2023-03-03T00:33:40;30.17;;;12.90;;
17763;SDS011;22245;52.832;13.816;2023-03-03T00:37:11;38.73;;;14.37;;
17763;SDS011;22245;52.832;13.816;2023-03-03T00:40:47;31.43;;;13.17;;
17763;SDS011;22245;52.832;13.816;2023-03-03T00:44:36;31.63;;;13.50;;
17763;SDS011;22245;52.832;13.816;2023-03-03T00:48:07;31.70;;;12.53;;
17763;SDS011;22245;52.832;13.816;2023-03-03T00:51:41;27.43;;;11.93;;
17763;SDS011;22245;52.832;13.816;2023-03-03T00:55:06;28.40;;;12.23;;
17763;SDS011;22245;52.832;13.816;2023-03-03T00:58:28;28.10;;;11.73;;
17763;SDS011;22245;52.832;13.816;2023-03-03T01:01:50;27.77;;;12.00;;
17763;SDS011;22245;52.832;13.816;2023-03-03T01:05:14;28.03;;;12.27;;
17763;SDS011;22245;52.832;13.816;2023-03-03T01:08:37;27.70;;;12.00;;
17763;SDS011;22245;52.832;13.816;2023-03-03T01:12:00;27.10;;;11.20;;
17763;SDS011;22245;52.832;13.816;2023-03-03T01:15:22;25.17;;;11.47;;
17763;SDS011;22245;52.832;13.816;2023-03-03T01:18:44;23.93;;;10.87;;
17763;SDS011;22245;52.832;13.816;2023-03-03T01:22:05;24.83;;;11.33;;
17763;SDS011;22245;52.832;13.816;2023-03-03T01:25:27;28.50;;;11.03;;
17763;SDS011;22245;52.832;13.816;2023-03-03T01:28:51;24.83;;;11.30;;
17763;SDS011;22245;52.832;13.816;2023-03-03T01:32:13;28.00;;;12.13;;
17763;SDS011;22245;52.832;13.816;2023-03-03T01:35:35;27.27;;;11.87;;
17763;SDS011;22245;52.832;13.816;2023-03-03T01:38:57;23.97;;;11.70;;
17763;SDS011;22245;52.832;13.816;2023-03-03T01:42:19;26.20;;;11.93;;
17763;SDS011;22245;52.832;13.816;2023-03-03T01:46:18;26.80;;;12.10;;
17763;SDS011;22245;52.832;13.816;2023-03-03T01:49:45;22.83;;;11.03;;
17763;SDS011;22245;52.832;13.816;2023-03-03T01:53:12;24.77;;;10.97;;
17763;SDS011;22245;52.832;13.816;2023-03-03T01:56:41;23.53;;;9.63;;
17763;SDS011;22245;52.832;13.816;2023-03-03T02:00:04;23.07;;;9.57;;
17763;SDS011;22245;52.832;13.816;2023-03-03T02:03:35;23.93;;;10.00;;
17763;SDS011;22245;52.832;13.816;2023-03-03T02:06:57;21.03;;;9.03;;
17763;SDS011;22245;52.832;13.816;2023-03-03T02:10:23;24.00;;;10.33;;
17763;SDS011;22245;52.832;13.816;2023-03-03T02:13:45;20.57;;;9.20;;
17763;SDS011;22245;52.832;13.816;2023-03-03T02:17:08;21.73;;;9.37;;
17763;SDS011;22245;52.832;13.816;2023-03-03T02:20:41;18.70;;;8.93;;
17763;SDS011;22245;52.832;13.816;2023-03-03T02:24:12;23.17;;;10.07;;
17763;SDS011;22245;52.832;13.816;2023-03-03T02:27:45;23.80;;;10.17;;
17763;SDS011;22245;52.832;13.816;2023-03-03T02:31:07;22.60;;;9.87;;
17763;SDS011;22245;52.832;13.816;2023-03-03T02:34:42;23.13;;;10.10;;
17763;SDS011;22245;52.832;13.816;2023-03-03T02:38:09;21.67;;;9.10;;
17763;SDS011;22245;52.832;13.816;2023-03-03T02:41:38;20.83;;;9.20;;
17763;SDS011;22245;52.832;13.816;2023-03-03T02:45:07;23.53;;;9.70;;
17763;SDS011;22245;52.832;13.816;2023-03-03T02:48:29;21.17;;;9.40;;
17763;SDS011;22245;52.832;13.816;2023-03-03T02:51:52;25.53;;;9.87;;
17763;SDS011;22245;52.832;13.816;2023-03-03T02:55:14;19.57;;;8.93;;
17763;SDS011;22245;52.832;13.816;2023-03-03T02:58:36;23.23;;;9.03;;
17763;SDS011;22245;52.832;13.816;2023-03-03T03:01:59;19.93;;;9.27;;
17763;SDS011;22245;52.832;13.816;2023-03-03T03:05:21;20.57;;;9.33;;
17763;SDS011;22245;52.832;13.816;2023-03-03T03:08:43;22.23;;;9.90;;
17763;SDS011;22245;52.832;13.816;2023-03-03T03:12:05;22.10;;;9.40;;
17763;SDS011;22245;52.832;13.816;2023-03-03T03:15:28;23.93;;;9.50;;
17763;SDS011;22245;52.832;13.816;2023-03-03T03:18:51;19.67;;;8.97;;
17763;SDS011;22245;52.832;13.816;2023-03-03T03:22:13;20.10;;;8.73;;
17763;SDS011;22245;52.832;13.816;2023-03-03T03:25:35;18.40;;;8.97;;
17763;SDS011;22245;52.832;13.816;2023-03-03T03:29:07;18.63;;;9.07;;
17763;SDS011;22245;52.832;13.816;2023-03-03T03:32:31;17.60;;;8.33;;
17763;SDS011;22245;52.832;13.816;2023-03-03T03:35:54;18.33;;;8.33;;
17763;SDS011;22245;52.832;13.816;2023-03-03T03:39:17;15.67;;;8.07;;
17763;SDS011;22245;52.832;13.816;2023-03-03T03:42:41;18.00;;;8.87;;
17763;SDS011;22245;52.832;13.816;2023-03-03T03:46:03;18.50;;;8.10;;
17763;SDS011;22245;52.832;13.816;2023-03-03T03:49:25;14.87;;;8.00;;
17763;SDS011;22245;52.832;13.816;2023-03-03T03:52:50;17.97;;;8.40;;
17763;SDS011;22245;52.832;13.816;2023-03-03T03:56:12;15.00;;;7.33;;
17763;SDS011;22245;52.832;13.816;2023-03-03T03:59:35;18.43;;;8.10;;
17763;SDS011;22245;52.832;13.816;2023-03-03T04:02:57;16.40;;;7.70;;
17763;SDS011;22245;52.832;13.816;2023-03-03T04:06:20;14.20;;;7.43;;
17763;SDS011;22245;52.832;13.816;2023-03-03T04:09:44;13.27;;;6.80;;
17763;SDS011;22245;52.832;13.816;2023-03-03T04:13:05;14.73;;;7.37;;
17763;SDS011;22245;52.832;13.816;2023-03-03T04:16:28;14.67;;;7.03;;
17763;SDS011;22245;52.832;13.816;2023-03-03T04:19:51;12.57;;;6.47;;
17763;SDS011;22245;52.832;13.816;2023-03-03T04:23:14;14.40;;;7.40;;
17763;SDS011;22245;52.832;13.816;2023-03-03T04:26:38;14.60;;;7.53;;
17763;SDS011;22245;52.832;13.816;2023-03-03T04:30:02;13.27;;;7.40;;
17763;SDS011;22245;52.832;13.816;2023-03-03T04:33:25;14.07;;;7.03;;
17763;SDS011;22245;52.832;13.816;2023-03-03T04:36:46;13.07;;;7.50;;
17763;SDS011;22245;52.832;13.816;2023-03-03T04:40:09;12.13;;;6.70;;
17763;SDS011;22245;52.832;13.816;2023-03-03T04:43:34;12.93;;;6.97;;
17763;SDS011;22245;52.832;13.816;2023-03-03T04:46:57;12.30;;;6.40;;
17763;SDS011;22245;52.832;13.816;2023-03-03T04:50:19;10.10;;;5.93;;
17763;SDS011;22245;52.832;13.816;2023-03-03T04:53:41;10.97;;;6.07;;
17763;SDS011;22245;52.832;13.816;2023-03-03T04:57:03;16.30;;;6.40;;
17763;SDS011;22245;52.832;13.816;2023-03-03T05:00:27;17.73;;;6.80;;
17763;SDS011;22245;52.832;13.816;2023-03-03T05:03:49;12.80;;;6.40;;
17763;SDS011;22245;52.832;13.816;2023-03-03T05:07:11;11.47;;;6.40;;
17763;SDS011;22245;52.832;13.816;2023-03-03T05:10:33;12.23;;;6.07;;
17763;SDS011;22245;52.832;13.816;2023-03-03T05:13:56;12.17;;;6.27;;
17763;SDS011;22245;52.832;13.816;2023-03-03T05:17:19;11.23;;;5.53;;
17763;SDS011;22245;52.832;13.816;2023-03-03T05:20:41;11.03;;;5.87;;
17763;SDS011;22245;52.832;13.816;2023-03-03T05:24:03;12.27;;;5.87;;
17763;SDS011;22245;52.832;13.816;2023-03-03T05:27:25;12.23;;;6.27;;
17763;SDS011;22245;52.832;13.816;2023-03-03T05:30:47;11.10;;;5.87;;
17763;SDS011;22245;52.832;13.816;2023-03-03T05:34:10;12.53;;;6.27;;
17763;SDS011;22245;52.832;13.816;2023-03-03T05:37:32;10.60;;;6.50;;
17763;SDS011;22245;52.832;13.816;2023-03-03T05:40:54;12.23;;;6.60;;
17763;SDS011;22245;52.832;13.816;2023-03-03T05:44:16;13.57;;;6.70;;
17763;SDS011;22245;52.832;13.816;2023-03-03T05:47:40;13.27;;;6.80;;
17763;SDS011;22245;52.832;13.816;2023-03-03T05:51:03;13.80;;;6.83;;
17763;SDS011;22245;52.832;13.816;2023-03-03T05:54:25;13.53;;;6.97;;
17763;SDS011;22245;52.832;13.816;2023-03-03T05:57:47;12.70;;;6.47;;
17763;SDS011;22245;52.832;13.816;2023-03-03T06:01:09;13.63;;;6.37;;
17763;SDS011;22245;52.832;13.816;2023-03-03T06:04:31;12.60;;;6.70;;
17763;SDS011;22245;52.832;13.816;2023-03-03T06:07:54;12.73;;;6.00;;
17763;SDS011;22245;52.832;13.816;2023-03-03T06:11:16;14.10;;;6.67;;
17763;SDS011;22245;52.832;13.816;2023-03-03T06:14:39;13.10;;;6.93;;
17763;SDS011;22245;52.832;13.816;2023-03-03T06:18:00;14.57;;;6.83;;
17763;SDS011;22245;52.832;13.816;2023-03-03T06:21:23;19.37;;;9.40;;
17763;SDS011;22245;52.832;13.816;2023-03-03T06:24:46;17.23;;;7.53;;
17763;SDS011;22245;52.832;13.816;2023-03-03T06:28:08;14.53;;;6.53;;
17763;SDS011;22245;52.832;13.816;2023-03-03T06:31:30;14.70;;;7.50;;
17763;SDS011;22245;52.832;13.816;2023-03-03T06:34:52;17.90;;;7.63;;
17763;SDS011;22245;52.832;13.816;2023-03-03T06:38:14;16.00;;;7.43;;
17763;SDS011;22245;52.832;13.816;2023-03-03T06:41:37;16.53;;;7.80;;
17763;SDS011;22245;52.832;13.816;2023-03-03T06:44:58;16.10;;;7.43;;
17763;SDS011;22245;52.832;13.816;2023-03-03T06:48:20;14.60;;;7.60;;
17763;SDS011;22245;52.832;13.816;2023-03-03T06:51:42;19.03;;;8.70;;
17763;SDS011;22245;52.832;13.816;2023-03-03T06:55:09;18.73;;;7.87;;
17763;SDS011;22245;52.832;13.816;2023-03-03T06:58:34;16.67;;;8.20;;
17763;SDS011;22245;52.832;13.816;2023-03-03T07:01:56;18.77;;;8.77;;
17763;SDS011;22245;52.832;13.816;2023-03-03T07:05:25;18.77;;;8.50;;
17763;SDS011;22245;52.832;13.816;2023-03-03T07:08:48;23.90;;;9.70;;
17763;SDS011;22245;52.832;13.816;2023-03-03T07:12:12;19.60;;;9.40;;
17763;SDS011;22245;52.832;13.816;2023-03-03T07:15:38;17.47;;;8.47;;
17763;SDS011;22245;52.832;13.816;2023-03-03T07:19:00;16.53;;;8.07;;
17763;SDS011;22245;52.832;13.816;2023-03-03T07:22:24;19.97;;;8.27;;
17763;SDS011;22245;52.832;13.816;2023-03-03T07:25:49;14.13;;;7.47;;
17763;SDS011;22245;52.832;13.816;2023-03-03T07:29:15;16.67;;;7.87;;
17763;SDS011;22245;52.832;13.816;2023-03-03T07:32:43;18.23;;;8.23;;
17763;SDS011;22245;52.832;13.816;2023-03-03T07:36:17;15.27;;;7.63;;
17763;SDS011;22245;52.832;13.816;2023-03-03T07:39:46;13.83;;;7.40;;
17763;SDS011;22245;52.832;13.816;2023-03-03T07:47:01;16.47;;;7.33;;
17763;SDS011;22245;52.832;13.816;2023-03-03T07:50:37;14.53;;;7.33;;
17763;SDS011;22245;52.832;13.816;2023-03-03T07:54:11;15.27;;;7.17;;
17763;SDS011;22245;52.832;13.816;2023-03-03T07:57:37;14.07;;;7.47;;
17763;SDS011;22245;52.832;13.816;2023-03-03T08:04:48;13.03;;;6.60;;
17763;SDS011;22245;52.832;13.816;2023-03-03T08:08:21;15.20;;;7.67;;
17763;SDS011;22245;52.832;13.816;2023-03-03T08:11:50;18.33;;;9.33;;
17763;SDS011;22245;52.832;13.816;2023-03-03T08:15:23;14.67;;;7.40;;
17763;SDS011;22245;52.832;13.816;2023-03-03T08:18:47;17.57;;;8.30;;
17763;SDS011;22245;52.832;13.816;2023-03-03T08:22:11;14.77;;;7.90;;
17763;SDS011;22245;52.832;13.816;2023-03-03T08:25:37;17.37;;;7.60;;
17763;SDS011;22245;52.832;13.816;2023-03-03T08:29:00;16.17;;;7.40;;
17763;SDS011;22245;52.832;13.816;2023-03-03T08:32:22;15.73;;;7.67;;
17763;SDS011;22245;52.832;13.816;2023-03-03T08:35:44;12.83;;;6.90;;
17763;SDS011;22245;52.832;13.816;2023-03-03T08:39:06;16.27;;;7.67;;
17763;SDS011;22245;52.832;13.816;2023-03-03T08:42:30;15.00;;;7.80;;
17763;SDS011;22245;52.832;13.816;2023-03-03T08:45:53;16.03;;;7.63;;
17763;SDS011;22245;52.832;13.816;2023-03-03T08:49:20;14.57;;;7.13;;
17763;SDS011;22245;52.832;13.816;2023-03-03T08:52:42;14.20;;;7.83;;
17763;SDS011;22245;52.832;13.816;2023-03-03T08:56:04;15.80;;;7.73;;
17763;SDS011;22245;52.832;13.816;2023-03-03T08:59:28;15.97;;;8.27;;
17763;SDS011;22245;52.832;13.816;2023-03-03T09:02:50;13.97;;;6.87;;
17763;SDS011;22245;52.832;13.816;2023-03-03T09:06:12;15.27;;;6.77;;
17763;SDS011;22245;52.832;13.816;2023-03-03T09:09:34;16.70;;;7.67;;
17763;SDS011;22245;52.832;13.816;2023-03-03T09:12:57;14.20;;;7.63;;
17763;SDS011;22245;52.832;13.816;2023-03-03T09:16:24;13.63;;;7.37;;
17763;SDS011;22245;52.832;13.816;2023-03-03T09:19:49;15.30;;;7.50;;
17763;SDS011;22245;52.832;13.816;2023-03-03T09:23:26;15.70;;;7.20;;
17763;SDS011;22245;52.832;13.816;2023-03-03T09:26:54;13.20;;;6.77;;
17763;SDS011;22245;52.832;13.816;2023-03-03T09:30:26;14.43;;;7.00;;
17763;SDS011;22245;52.832;13.816;2023-03-03T09:33:57;13.37;;;6.20;;
17763;SDS011;22245;52.832;13.816;2023-03-03T09:37:20;14.70;;;6.77;;
17763;SDS011;22245;52.832;13.816;2023-03-03T09:40:46;13.83;;;6.43;;
17763;SDS011;22245;52.832;13.816;2023-03-03T09:44:26;14.37;;;7.07;;
17763;SDS011;22245;52.832;13.816;2023-03-03T09:51:57;12.77;;;6.67;;
17763;SDS011;22245;52.832;13.816;2023-03-03T09:55:33;15.93;;;8.33;;
17763;SDS011;22245;52.832;13.816;2023-03-03T09:59:08;13.73;;;6.80;;
17763;SDS011;22245;52.832;13.816;2023-03-03T10:02:43;12.43;;;6.63;;
17763;SDS011;22245;52.832;13.816;2023-03-03T10:06:16;13.60;;;6.73;;
17763;SDS011;22245;52.832;13.816;2023-03-03T10:09:47;13.83;;;7.30;;
17763;SDS011;22245;52.832;13.816;2023-03-03T10:13:30;15.93;;;7.50;;
17763;SDS011;22245;52.832;13.816;2023-03-03T10:17:06;16.30;;;8.20;;
17763;SDS011;22245;52.832;13.816;2023-03-03T10:20:37;16.57;;;7.83;;
17763;SDS011;22245;52.832;13.816;2023-03-03T10:24:14;16.63;;;8.20;;
17763;SDS011;22245;52.832;13.816;2023-03-03T10:27:53;18.00;;;8.50;;
17763;SDS011;22245;52.832;13.816;2023-03-03T10:31:29;20.47;;;8.80;;
17763;SDS011;22245;52.832;13.816;2023-03-03T10:35:03;19.80;;;8.67;;
17763;SDS011;22245;52.832;13.816;2023-03-03T10:38:51;19.03;;;8.60;;
17763;SDS011;22245;52.832;13.816;2023-03-03T10:42:30;24.70;;;10.47;;
17763;SDS011;22245;52.832;13.816;2023-03-03T10:50:02;21.40;;;9.80;;
17763;SDS011;22245;52.832;13.816;2023-03-03T10:53:36;23.43;;;10.70;;
17763;SDS011;22245;52.832;13.816;2023-03-03T10:57:10;21.90;;;10.40;;
17763;SDS011;22245;52.832;13.816;2023-03-03T11:00:40;26.47;;;10.77;;
17763;SDS011;22245;52.832;13.816;2023-03-03T11:07:51;28.63;;;12.03;;
17763;SDS011;22245;52.832;13.816;2023-03-03T11:11:19;23.30;;;10.77;;
17763;SDS011;22245;52.832;13.816;2023-03-03T11:14:54;26.80;;;11.50;;
17763;SDS011;22245;52.832;13.816;2023-03-03T11:18:36;27.90;;;12.40;;
17763;SDS011;22245;52.832;13.816;2023-03-03T11:22:14;25.33;;;11.37;;
17763;SDS011;22245;52.832;13.816;2023-03-03T11:25:45;23.07;;;11.40;;
17763;SDS011;22245;52.832;13.816;2023-03-03T11:29:19;26.30;;;11.00;;
17763;SDS011;22245;52.832;13.816;2023-03-03T11:32:48;26.90;;;10.87;;
17763;SDS011;22245;52.832;13.816;2023-03-03T11:36:17;25.53;;;10.93;;
17763;SDS011;22245;52.832;13.816;2023-03-03T11:39:44;23.50;;;11.10;;
17763;SDS011;22245;52.832;13.816;2023-03-03T11:43:09;26.20;;;11.07;;
17763;SDS011;22245;52.832;13.816;2023-03-03T11:46:55;24.53;;;11.07;;
17763;SDS011;22245;52.832;13.816;2023-03-03T11:50:21;21.33;;;11.40;;
17763;SDS011;22245;52.832;13.816;2023-03-03T11:53:49;26.17;;;11.43;;
17763;SDS011;22245;52.832;13.816;2023-03-03T11:57:20;25.67;;;11.07;;
17763;SDS011;22245;52.832;13.816;2023-03-03T12:00:50;23.13;;;10.47;;
17763;SDS011;22245;52.832;13.816;2023-03-03T12:04:14;22.33;;;10.63;;
17763;SDS011;22245;52.832;13.816;2023-03-03T12:07:44;23.53;;;10.23;;
17763;SDS011;22245;52.832;13.816;2023-03-03T12:11:16;23.40;;;11.07;;
17763;SDS011;22245;52.832;13.816;2023-03-03T12:14:51;24.10;;;10.57;;
17763;SDS011;22245;52.832;13.816;2023-03-03T12:22:12;23.37;;;10.63;;
17763;SDS011;22245;52.832;13.816;2023-03-03T12:26:01;21.87;;;10.27;;
17763;SDS011;22245;52.832;13.816;2023-03-03T12:29:30;23.20;;;10.63;;
17763;SDS011;22245;52.832;13.816;2023-03-03T12:33:08;24.50;;;10.50;;
17763;SDS011;22245;52.832;13.816;2023-03-03T12:36:53;20.47;;;9.80;;
17763;SDS011;22245;52.832;13.816;2023-03-03T12:40:25;21.03;;;10.30;;
17763;SDS011;22245;52.832;13.816;2023-03-03T12:43:54;19.80;;;9.80;;
17763;SDS011;22245;52.832;13.816;2023-03-03T12:47:24;23.63;;;10.60;;
17763;SDS011;22245;52.832;13.816;2023-03-03T12:50:56;22.50;;;10.57;;
17763;SDS011;22245;52.832;13.816;2023-03-03T12:58:15;25.10;;;11.20;;
17763;SDS011;22245;52.832;13.816;2023-03-03T13:02:04;20.87;;;10.50;;
17763;SDS011;22245;52.832;13.816;2023-03-03T13:05:44;21.23;;;10.07;;
17763;SDS011;22245;52.832;13.816;2023-03-03T13:09:27;21.33;;;10.33;;
17763;SDS011;22245;52.832;13.816;2023-03-03T13:12:58;22.90;;;10.73;;
17763;SDS011;22245;52.832;13.816;2023-03-03T13:16:28;22.93;;;10.93;;
17763;SDS011;22245;52.832;13.816;2023-03-03T13:20:02;23.67;;;10.50;;
17763;SDS011;22245;52.832;13.816;2023-03-03T13:23:38;23.40;;;10.97;;
17763;SDS011;22245;52.832;13.816;2023-03-03T13:27:10;24.03;;;10.93;;
17763;SDS011;22245;52.832;13.816;2023-03-03T13:30:35;22.80;;;10.40;;
17763;SDS011;22245;52.832;13.816;2023-03-03T13:34:01;20.43;;;10.03;;
17763;SDS011;22245;52.832;13.816;2023-03-03T13:37:25;20.73;;;10.13;;
17763;SDS011;22245;52.832;13.816;2023-03-03T13:40:50;23.63;;;10.17;;
17763;SDS011;22245;52.832;13.816;2023-03-03T13:44:21;20.00;;;9.87;;
17763;SDS011;22245;52.832;13.816;2023-03-03T13:47:47;21.77;;;10.37;;
17763;SDS011;22245;52.832;13.816;2023-03-03T13:51:18;23.00;;;10.67;;
17763;SDS011;22245;52.832;13.816;2023-03-03T13:55:04;18.30;;;8.93;;
17763;SDS011;22245;52.832;13.816;2023-03-03T13:58:35;21.73;;;10.67;;
17763;SDS011;22245;52.832;13.816;2023-03-03T14:02:07;22.60;;;10.63;;
17763;SDS011;22245;52.832;13.816;2023-03-03T14:05:48;23.07;;;10.13;;
17763;SDS011;22245;52.832;13.816;2023-03-03T14:09:19;22.40;;;9.97;;
17763;SDS011;22245;52.832;13.816;2023-03-03T14:12:57;22.20;;;10.57;;
17763;SDS011;22245;52.832;13.816;2023-03-03T14:16:30;19.60;;;8.97;;
17763;SDS011;22245;52.832;13.816;2023-03-03T14:20:10;24.33;;;10.70;;
17763;SDS011;22245;52.832;13.816;2023-03-03T14:23:41;19.83;;;9.53;;
17763;SDS011;22245;52.832;13.816;2023-03-03T14:27:18;20.47;;;10.27;;
17763;SDS011;22245;52.832;13.816;2023-03-03T14:30:44;22.07;;;9.97;;
17763;SDS011;22245;52.832;13.816;2023-03-03T14:34:13;20.40;;;9.17;;
17763;SDS011;22245;52.832;13.816;2023-03-03T14:37:48;19.90;;;9.93;;
17763;SDS011;22245;52.832;13.816;2023-03-03T14:41:15;18.27;;;8.83;;
17763;SDS011;22245;52.832;13.816;2023-03-03T14:44:47;22.10;;;10.13;;
17763;SDS011;22245;52.832;13.816;2023-03-03T14:48:14;21.00;;;9.77;;
17763;SDS011;22245;52.832;13.816;2023-03-03T14:51:39;21.70;;;10.70;;
17763;SDS011;22245;52.832;13.816;2023-03-03T14:58:52;18.90;;;9.43;;
17763;SDS011;22245;52.832;13.816;2023-03-03T15:02:27;18.97;;;9.30;;
17763;SDS011;22245;52.832;13.816;2023-03-03T15:05:55;20.67;;;9.43;;
17763;SDS011;22245;52.832;13.816;2023-03-03T15:09:28;19.17;;;9.37;;
17763;SDS011;22245;52.832;13.816;2023-03-03T15:12:57;18.20;;;8.90;;
17763;SDS011;22245;52.832;13.816;2023-03-03T15:16:19;18.47;;;9.60;;
17763;SDS011;22245;52.832;13.816;2023-03-03T15:19:44;21.03;;;10.27;;
17763;SDS011;22245;52.832;13.816;2023-03-03T15:23:17;18.23;;;9.10;;
17763;SDS011;22245;52.832;13.816;2023-03-03T15:26:58;20.97;;;8.67;;
17763;SDS011;22245;52.832;13.816;2023-03-03T15:30:27;18.87;;;9.80;;
17763;SDS011;22245;52.832;13.816;2023-03-03T15:33:58;18.90;;;9.47;;
17763;SDS011;22245;52.832;13.816;2023-03-03T15:37:27;18.87;;;8.17;;
17763;SDS011;22245;52.832;13.816;2023-03-03T15:41:00;18.33;;;9.17;;
17763;SDS011;22245;52.832;13.816;2023-03-03T15:44:37;16.57;;;8.43;;
17763;SDS011;22245;52.832;13.816;2023-03-03T15:48:18;19.13;;;9.00;;
17763;SDS011;22245;52.832;13.816;2023-03-03T15:51:57;16.47;;;8.80;;
17763;SDS011;22245;52.832;13.816;2023-03-03T15:55:46;18.00;;;9.33;;
17763;SDS011;22245;52.832;13.816;2023-03-03T15:59:20;17.20;;;8.57;;
17763;SDS011;22245;52.832;13.816;2023-03-03T16:02:53;20.97;;;8.80;;
17763;SDS011;22245;52.832;13.816;2023-03-03T16:06:21;19.23;;;9.80;;
17763;SDS011;22245;52.832;13.816;2023-03-03T16:09:52;18.40;;;9.57;;
17763;SDS011;22245;52.832;13.816;2023-03-03T16:13:27;19.53;;;9.90;;
17763;SDS011;22245;52.832;13.816;2023-03-03T16:17:00;22.40;;;10.67;;
17763;SDS011;22245;52.832;13.816;2023-03-03T16:20:34;21.93;;;10.30;;
17763;SDS011;22245;52.832;13.816;2023-03-03T16:24:04;24.03;;;11.13;;
17763;SDS011;22245;52.832;13.816;2023-03-03T16:27:41;22.73;;;11.23;;
17763;SDS011;22245;52.832;13.816;2023-03-03T16:31:06;23.00;;;10.40;;
17763;SDS011;22245;52.832;13.816;2023-03-03T16:34:34;23.13;;;10.77;;
17763;SDS011;22245;52.832;13.816;2023-03-03T16:38:01;20.87;;;10.83;;
17763;SDS011;22245;52.832;13.816;2023-03-03T16:41:34;20.57;;;10.20;;
17763;SDS011;22245;52.832;13.816;2023-03-03T16:45:17;23.23;;;11.63;;
17763;SDS011;22245;52.832;13.816;2023-03-03T16:48:43;24.30;;;11.30;;
17763;SDS011;22245;52.832;13.816;2023-03-03T16:52:12;25.07;;;12.37;;
17763;SDS011;22245;52.832;13.816;2023-03-03T16:55:36;25.20;;;12.80;;
17763;SDS011;22245;52.832;13.816;2023-03-03T16:59:18;27.13;;;13.23;;
17763;SDS011;22245;52.832;13.816;2023-03-03T17:02:57;22.63;;;12.57;;
17763;SDS011;22245;52.832;13.816;2023-03-03T17:06:38;25.07;;;12.10;;
17763;SDS011;22245;52.832;13.816;2023-03-03T17:10:12;26.13;;;12.13;;
17763;SDS011;22245;52.832;13.816;2023-03-03T17:13:47;22.90;;;11.93;;
17763;SDS011;22245;52.832;13.816;2023-03-03T17:17:37;24.80;;;12.03;;
17763;SDS011;22245;52.832;13.816;2023-03-03T17:21:06;28.57;;;12.30;;
17763;SDS011;22245;52.832;13.816;2023-03-03T17:24:38;23.67;;;12.13;;
17763;SDS011;22245;52.832;13.816;2023-03-03T17:28:12;25.57;;;12.73;;
17763;SDS011;22245;52.832;13.816;2023-03-03T17:31:44;25.50;;;12.33;;
17763;SDS011;22245;52.832;13.816;2023-03-03T17:35:16;24.87;;;12.63;;
17763;SDS011;22245;52.832;13.816;2023-03-03T17:38:50;25.50;;;12.40;;
17763;SDS011;22245;52.832;13.816;2023-03-03T17:42:23;28.10;;;14.33;;
17763;SDS011;22245;52.832;13.816;2023-03-03T17:45:55;27.27;;;13.03;;
17763;SDS011;22245;52.832;13.816;2023-03-03T17:53:25;27.43;;;13.47;;
17763;SDS011;22245;52.832;13.816;2023-03-03T17:57:07;26.90;;;12.90;;
17763;SDS011;22245;52.832;13.816;2023-03-03T18:00:42;25.83;;;13.30;;
17763;SDS011;22245;52.832;13.816;2023-03-03T18:04:16;23.50;;;11.77;;
17763;SDS011;22245;52.832;13.816;2023-03-03T18:07:52;28.37;;;12.37;;
17763;SDS011;22245;52.832;13.816;2023-03-03T18:11:31;27.47;;;13.17;;
17763;SDS011;22245;52.832;13.816;2023-03-03T18:18:53;29.23;;;14.60;;
17763;SDS011;22245;52.832;13.816;2023-03-03T18:22:23;30.23;;;14.73;;
17763;SDS011;22245;52.832;13.816;2023-03-03T18:25:52;33.90;;;16.43;;
17763;SDS011;22245;52.832;13.816;2023-03-03T18:29:19;31.40;;;15.23;;
17763;SDS011;22245;52.832;13.816;2023-03-03T18:32:44;33.20;;;16.90;;
17763;SDS011;22245;52.832;13.816;2023-03-03T18:36:12;32.70;;;16.30;;
17763;SDS011;22245;52.832;13.816;2023-03-03T18:39:39;31.67;;;15.87;;
17763;SDS011;22245;52.832;13.816;2023-03-03T18:47:10;30.53;;;14.23;;
17763;SDS011;22245;52.832;13.816;2023-03-03T18:50:34;29.83;;;14.20;;
17763;SDS011;22245;52.832;13.816;2023-03-03T18:54:00;33.30;;;15.47;;
17763;SDS011;22245;52.832;13.816;2023-03-03T18:57:26;32.40;;;14.50;;
17763;SDS011;22245;52.832;13.816;2023-03-03T19:00:48;32.47;;;15.97;;
17763;SDS011;22245;52.832;13.816;2023-03-03T19:04:20;35.00;;;15.90;;
17763;SDS011;22245;52.832;13.816;2023-03-03T19:07:51;37.00;;;16.43;;
17763;SDS011;22245;52.832;13.816;2023-03-03T19:15:06;34.23;;;15.70;;
17763;SDS011;22245;52.832;13.816;2023-03-03T19:18:56;31.67;;;14.80;;
17763;SDS011;22245;52.832;13.816;2023-03-03T19:22:23;30.30;;;14.13;;
17763;SDS011;22245;52.832;13.816;2023-03-03T19:25:49;32.07;;;14.40;;
17763;SDS011;22245;52.832;13.816;2023-03-03T19:33:49;30.47;;;14.70;;
17763;SDS011;22245;52.832;13.816;2023-03-03T19:37:21;26.90;;;12.73;;
17763;SDS011;22245;52.832;13.816;2023-03-03T19:40:56;30.93;;;13.70;;
17763;SDS011;22245;52.832;13.816;2023-03-03T19:44:32;27.53;;;13.13;;
17763;SDS011;22245;52.832;13.816;2023-03-03T19:48:13;31.10;;;14.10;;
17763;SDS011;22245;52.832;13.816;2023-03-03T19:51:45;25.77;;;13.03;;
17763;SDS011;22245;52.832;13.816;2023-03-03T19:55:23;30.40;;;13.53;;
17763;SDS011;22245;52.832;13.816;2023-03-03T19:58:50;33.93;;;14.33;;
17763;SDS011;22245;52.832;13.816;2023-03-03T20:02:26;28.57;;;12.80;;
17763;SDS011;22245;52.832;13.816;2023-03-03T20:06:02;32.37;;;14.87;;
17763;SDS011;22245;52.832;13.816;2023-03-03T20:09:38;32.03;;;14.63;;
17763;SDS011;22245;52.832;13.816;2023-03-03T20:13:11;32.03;;;14.33;;
17763;SDS011;22245;52.832;13.816;2023-03-03T20:16:50;31.03;;;13.80;;
17763;SDS011;22245;52.832;13.816;2023-03-03T20:20:23;29.20;;;13.63;;
17763;SDS011;22245;52.832;13.816;2023-03-03T20:24:14;33.20;;;13.63;;
17763;SDS011;22245;52.832;13.816;2023-03-03T20:27:46;26.03;;;12.57;;
17763;SDS011;22245;52.832;13.816;2023-03-03T20:31:19;24.40;;;11.70;;
17763;SDS011;22245;52.832;13.816;2023-03-03T20:34:50;22.97;;;11.00;;
17763;SDS011;22245;52.832;13.816;2023-03-03T20:38:23;23.00;;;10.83;;
17763;SDS011;22245;52.832;13.816;2023-03-03T20:42:02;20.77;;;9.97;;
17763;SDS011;22245;52.832;13.816;2023-03-03T20:45:37;18.93;;;9.47;;
17763;SDS011;22245;52.832;13.816;2023-03-03T20:49:15;25.23;;;10.77;;
17763;SDS011;22245;52.832;13.816;2023-03-03T20:52:57;26.73;;;10.80;;
17763;SDS011;22245;52.832;13.816;2023-03-03T20:56:27;19.80;;;9.87;;
17763;SDS011;22245;52.832;13.816;2023-03-03T20:59:58;21.03;;;10.07;;
17763;SDS011;22245;52.832;13.816;2023-03-03T21:03:25;19.13;;;9.80;;
17763;SDS011;22245;52.832;13.816;2023-03-03T21:06:53;18.13;;;8.60;;